createdAt,value
2019-04-23T00:00:19.847Z,12.20
2019-04-23T00:02:50.930Z,12.20
2019-04-23T00:05:29.077Z,12.10
2019-04-23T00:10:26.063Z,12.10
2019-04-23T00:12:54.231Z,12.00
2019-04-23T00:17:48.826Z,12.00
2019-04-23T00:20:22.016Z,12.00
2019-04-23T00:25:43.881Z,11.90
2019-04-23T00:28:10.120Z,11.90
2019-04-23T00:33:05.323Z,11.90
2019-04-23T00:35:32.663Z,11.90
2019-04-23T00:38:06.066Z,11.90
2019-04-23T00:43:08.944Z,11.90
2019-04-23T00:45:42.996Z,11.90
2019-04-23T00:48:09.984Z,12.00
2019-04-23T00:50:46.514Z,12.00
2019-04-23T00:53:04.536Z,12.00
2019-04-23T00:55:42.631Z,11.90
2019-04-23T00:58:12.828Z,11.90
2019-04-23T01:00:41.542Z,11.90
2019-04-23T01:08:12.837Z,11.90
2019-04-23T01:10:52.058Z,11.90
2019-04-23T01:13:22.393Z,11.90
2019-04-23T01:15:53.737Z,11.90
2019-04-23T01:18:33.545Z,11.90
2019-04-23T01:20:53.056Z,11.90
2019-04-23T01:23:16.014Z,11.90
2019-04-23T01:25:57.762Z,11.90
2019-04-23T01:28:53.834Z,11.80
2019-04-23T01:31:16.930Z,11.80
2019-04-23T01:36:23.370Z,11.80
2019-04-23T01:38:46.179Z,11.80
2019-04-23T01:41:12.897Z,11.80
2019-04-23T01:46:17.966Z,11.80
2019-04-23T01:48:47.128Z,11.80
2019-04-23T01:51:07.827Z,11.80
2019-04-23T01:53:45.668Z,11.70
2019-04-23T01:56:22.976Z,11.70
2019-04-23T01:58:45.502Z,11.70
2019-04-23T02:01:19.051Z,11.70
2019-04-23T02:03:46.663Z,11.60
2019-04-23T02:06:34.947Z,11.60
2019-04-23T02:08:48.693Z,11.60
2019-04-23T02:11:13.120Z,11.60
2019-04-23T02:13:53.232Z,11.60
2019-04-23T02:16:23.051Z,11.60
2019-04-23T02:18:50.243Z,11.50
2019-04-23T02:26:27.722Z,11.40
2019-04-23T02:29:03.752Z,11.50
2019-04-23T02:31:45.078Z,11.40
2019-04-23T02:34:14.365Z,11.40
2019-04-23T02:36:32.298Z,11.40
2019-04-23T02:38:55.439Z,11.30
2019-04-23T02:44:09.106Z,11.20
2019-04-23T02:46:24.507Z,11.30
2019-04-23T02:49:05.013Z,11.20
2019-04-23T02:54:19.734Z,11.20
2019-04-23T03:01:39.999Z,11.10
2019-04-23T03:04:09.963Z,11.10
2019-04-23T03:09:00.468Z,11.00
2019-04-23T03:14:07.638Z,10.90
2019-04-23T03:19:25.596Z,10.90
2019-04-23T03:24:36.429Z,10.90
2019-04-23T03:27:19.229Z,10.90
2019-04-23T03:29:46.962Z,10.80
2019-04-23T03:37:20.588Z,10.80
2019-04-23T03:39:55.059Z,10.80
2019-04-23T03:42:11.963Z,10.70
2019-04-23T03:44:45.015Z,10.70
2019-04-23T03:49:41.151Z,10.60
2019-04-23T03:52:15.988Z,10.60
2019-04-23T03:54:39.906Z,10.60
2019-04-23T03:57:13.481Z,10.60
2019-04-23T03:59:44.795Z,10.60
2019-04-23T04:02:20.425Z,10.50
2019-04-23T04:04:32.809Z,10.50
2019-04-23T04:09:44.869Z,10.50
2019-04-23T04:12:16.497Z,10.40
2019-04-23T04:22:23.832Z,10.40
2019-04-23T04:24:40.192Z,10.40
2019-04-23T04:29:47.493Z,10.40
2019-04-23T04:32:03.666Z,10.40
2019-04-23T04:42:12.390Z,10.70
2019-04-23T04:44:50.279Z,10.70
2019-04-23T04:49:53.325Z,10.80
2019-04-23T04:54:30.781Z,10.90
2019-04-23T04:57:20.802Z,11.00
2019-04-23T04:59:53.910Z,11.00
2019-04-23T05:05:16.873Z,11.10
2019-04-23T05:09:57.009Z,11.20
2019-04-23T05:12:19.094Z,11.20
2019-04-23T05:14:52.963Z,11.30
2019-04-23T05:17:16.828Z,11.40
2019-04-23T05:19:51.221Z,11.40
2019-04-23T05:22:16.473Z,11.50
2019-04-23T05:24:42.979Z,11.60
2019-04-23T05:27:15.773Z,11.50
2019-04-23T05:29:46.528Z,11.60
2019-04-23T05:32:16.738Z,11.60
2019-04-23T05:34:45.106Z,11.70
2019-04-23T05:37:15.995Z,11.70
2019-04-23T05:42:19.893Z,11.80
2019-04-23T05:44:50.291Z,12.00
2019-04-23T05:47:25.450Z,12.00
2019-04-23T05:52:17.791Z,12.10
2019-04-23T05:55:07.596Z,12.10
2019-04-23T05:57:14.240Z,12.20
2019-04-23T05:59:48.543Z,12.10
2019-04-23T06:02:22.309Z,12.20
2019-04-23T06:04:49.604Z,12.30
2019-04-23T06:07:28.941Z,12.30
2019-04-23T06:09:52.131Z,12.40
2019-04-23T06:12:21.943Z,12.50
2019-04-23T06:14:53.794Z,12.50
2019-04-23T06:17:27.498Z,12.50
2019-04-23T06:19:57.103Z,12.50
2019-04-23T06:22:28.931Z,12.60
2019-04-23T06:24:49.865Z,12.50
2019-04-23T06:32:28.641Z,13.00
2019-04-23T06:34:52.938Z,13.20
2019-04-23T06:37:27.063Z,13.50
2019-04-23T06:39:55.398Z,13.80
2019-04-23T06:42:23.394Z,14.30
2019-04-23T06:44:56.176Z,15.00
2019-04-23T06:47:29.273Z,15.20
2019-04-23T06:49:55.949Z,15.20
2019-04-23T06:52:21.768Z,15.40
2019-04-23T06:57:25.551Z,15.60
2019-04-23T06:59:57.880Z,15.30
2019-04-23T07:02:26.157Z,15.40
2019-04-23T07:10:07.415Z,15.30
2019-04-23T07:12:33.288Z,15.20
2019-04-23T07:17:26.622Z,15.20
2019-04-23T07:20:04.239Z,15.60
2019-04-23T07:22:43.219Z,15.60
2019-04-23T07:25:03.172Z,15.70
2019-04-23T07:27:30.571Z,15.40
2019-04-23T07:30:03.602Z,15.40
2019-04-23T07:32:31.245Z,15.60
2019-04-23T07:37:32.741Z,15.70
2019-04-23T07:47:42.242Z,16.20
2019-04-23T07:50:23.170Z,16.60
2019-04-23T07:52:51.449Z,16.80
2019-04-23T07:57:52.169Z,16.70
2019-04-23T08:00:25.422Z,16.40
2019-04-23T08:02:47.700Z,16.50
2019-04-23T08:07:50.550Z,16.40
2019-04-23T08:10:18.598Z,16.60
2019-04-23T08:12:47.062Z,16.40
2019-04-23T08:15:23.107Z,16.50
2019-04-23T08:17:43.117Z,16.60
2019-04-23T08:20:26.768Z,17.00
2019-04-23T08:22:47.778Z,17.10
2019-04-23T08:25:26.425Z,17.20
2019-04-23T08:28:01.692Z,17.10
2019-04-23T08:30:24.114Z,17.20
2019-04-23T08:32:58.857Z,17.30
2019-04-23T08:35:26.985Z,17.20
2019-04-23T08:38:11.622Z,17.70
2019-04-23T08:40:30.707Z,17.90
2019-04-23T08:43:03.532Z,17.80
2019-04-23T08:45:31.377Z,18.30
2019-04-23T08:48:15.580Z,18.70
2019-04-23T08:50:40.343Z,18.70
2019-04-23T08:53:23.408Z,18.70
2019-04-23T08:55:53.590Z,18.70
2019-04-23T08:58:21.464Z,18.80
2019-04-23T09:00:51.994Z,18.70
2019-04-23T09:05:55.873Z,18.50
2019-04-23T09:08:19.133Z,18.90
2019-04-23T09:15:58.255Z,19.60
2019-04-23T09:18:20.948Z,19.90
2019-04-23T09:20:53.004Z,19.90
2019-04-23T09:23:33.044Z,20.00
2019-04-23T09:25:55.929Z,20.10
2019-04-23T09:30:55.351Z,20.60
2019-04-23T09:33:39.822Z,21.20
2019-04-23T09:36:07.758Z,20.70
2019-04-23T09:38:39.658Z,21.20
2019-04-23T09:44:14.589Z,21.60
2019-04-23T09:46:40.510Z,21.70
2019-04-23T09:49:14.918Z,22.10
2019-04-23T09:54:27.265Z,22.50
2019-04-23T09:56:41.594Z,21.90
2019-04-23T09:59:15.970Z,22.10
2019-04-23T10:01:40.943Z,22.40
2019-04-23T10:03:57.599Z,21.60
2019-04-23T10:06:22.626Z,22.10
2019-04-23T10:08:51.943Z,22.80
2019-04-23T10:11:19.657Z,22.60
2019-04-23T10:13:48.175Z,22.90
2019-04-23T10:16:19.391Z,22.50
2019-04-23T10:18:48.891Z,22.40
2019-04-23T10:21:17.690Z,22.70
2019-04-23T10:23:47.499Z,22.70
2019-04-23T10:26:16.526Z,23.10
2019-04-23T10:28:49.814Z,23.10
2019-04-23T10:31:18.753Z,23.00
2019-04-23T10:33:48.246Z,22.70
2019-04-23T10:36:19.899Z,23.00
2019-04-23T10:38:54.793Z,23.50
2019-04-23T10:41:18.220Z,24.10
2019-04-23T10:43:52.003Z,23.90
2019-04-23T10:46:53.074Z,23.20
2019-04-23T10:52:12.895Z,23.60
2019-04-23T10:57:04.044Z,23.20
2019-04-23T11:02:29.295Z,22.20
2019-04-23T11:07:20.863Z,22.80
2019-04-23T11:12:24.199Z,21.70
2019-04-23T11:14:53.407Z,22.20
2019-04-23T11:17:26.959Z,22.70
2019-04-23T11:20:06.819Z,22.30
2019-04-23T11:22:39.287Z,21.60
2019-04-23T11:24:53.402Z,21.80
2019-04-23T11:27:22.267Z,21.50
2019-04-23T11:29:57.023Z,21.80
2019-04-23T11:35:04.963Z,21.00
2019-04-23T11:37:25.426Z,20.60
2019-04-23T11:38:01.636Z,21.30
2019-04-23T11:39:55.379Z,20.60
2019-04-23T11:42:19.475Z,20.40
2019-04-23T11:47:47.028Z,20.60
2019-04-23T11:49:58.235Z,21.00
2019-04-23T11:52:42.798Z,21.00
2019-04-23T11:54:53.057Z,20.50
2019-04-23T11:57:40.737Z,20.50
2019-04-23T11:59:53.093Z,20.20
2019-04-23T12:02:32.784Z,20.00
2019-04-23T12:05:30.056Z,19.80
2019-04-23T12:07:57.648Z,19.70
2019-04-23T12:10:52.026Z,19.80
2019-04-23T12:13:21.303Z,19.70
2019-04-23T12:15:51.802Z,19.40
2019-04-23T12:18:18.112Z,19.50
2019-04-23T12:20:39.816Z,19.60
2019-04-23T12:23:42.774Z,19.10
2019-04-23T12:25:58.650Z,18.90
2019-04-23T12:28:23.103Z,18.80
2019-04-23T12:33:28.065Z,18.70
2019-04-23T12:35:44.139Z,18.70
2019-04-23T12:38:19.235Z,18.90
2019-04-23T12:40:49.244Z,19.10
2019-04-23T12:43:19.167Z,19.20
2019-04-23T12:45:46.928Z,19.30
2019-04-23T12:48:45.046Z,19.50
2019-04-23T12:53:38.002Z,19.20
2019-04-23T12:55:56.489Z,19.10
2019-04-23T13:00:48.409Z,18.90
2019-04-23T13:03:25.932Z,18.90
2019-04-23T13:05:43.421Z,18.90
2019-04-23T13:08:33.704Z,18.80
2019-04-23T13:10:49.989Z,18.90
2019-04-23T13:13:27.912Z,19.00
2019-04-23T13:15:53.084Z,18.90
2019-04-23T13:21:01.595Z,18.60
2019-04-23T13:25:57.467Z,18.40
2019-04-23T13:31:08.601Z,18.60
2019-04-23T13:33:38.918Z,18.50
2019-04-23T13:38:37.951Z,18.40
2019-04-23T13:41:12.376Z,18.50
2019-04-23T13:48:24.767Z,18.40
2019-04-23T13:51:09.531Z,18.30
2019-04-23T13:53:40.760Z,18.30
2019-04-23T13:56:15.283Z,18.40
2019-04-23T13:58:50.328Z,18.40
2019-04-23T14:03:41.257Z,18.50
2019-04-23T14:06:16.504Z,18.50
2019-04-23T14:08:47.470Z,18.50
2019-04-23T14:11:19.791Z,18.40
2019-04-23T14:13:52.189Z,18.30
2019-04-23T14:16:21.237Z,18.20
2019-04-23T14:24:03.359Z,18.10
2019-04-23T14:26:25.940Z,18.00
2019-04-23T14:28:43.491Z,17.90
2019-04-23T14:31:13.135Z,17.90
2019-04-23T14:33:56.405Z,17.80
2019-04-23T14:36:17.330Z,17.70
2019-04-23T14:38:43.691Z,17.60
2019-04-23T14:43:49.395Z,17.50
2019-04-23T14:46:38.488Z,17.30
2019-04-23T14:48:53.855Z,17.30
2019-04-23T14:58:57.464Z,17.00
2019-04-23T15:01:36.164Z,17.00
2019-04-23T15:11:29.582Z,16.80
2019-04-23T15:13:49.961Z,16.70
2019-04-23T15:16:22.251Z,16.70
2019-04-23T15:21:49.497Z,16.70
2019-04-23T15:28:37.426Z,16.50
2019-04-23T15:31:33.015Z,16.50
2019-04-23T15:34:13.812Z,16.50
2019-04-23T15:41:31.972Z,16.40
2019-04-23T15:44:03.111Z,16.40
2019-04-23T15:46:37.096Z,16.30
2019-04-23T15:49:07.271Z,16.30
2019-04-23T15:51:35.750Z,16.30
2019-04-23T15:54:02.818Z,16.40
2019-04-23T15:59:14.317Z,16.40
2019-04-23T16:01:34.493Z,16.30
2019-04-23T16:03:36.008Z,16.30
2019-04-23T16:06:07.830Z,16.30
2019-04-23T16:14:17.646Z,16.30
2019-04-23T16:16:37.318Z,16.30
2019-04-23T16:19:13.757Z,16.30
2019-04-23T16:21:47.920Z,16.30
2019-04-23T16:24:13.530Z,16.40
2019-04-23T16:29:25.870Z,16.40
2019-04-23T16:31:54.742Z,16.40
2019-04-23T16:36:59.495Z,16.40
2019-04-23T16:39:25.687Z,16.40
2019-04-23T16:42:01.823Z,16.40
2019-04-23T16:44:38.280Z,16.50
2019-04-23T16:47:04.574Z,16.50
2019-04-23T16:52:04.016Z,16.50
2019-04-23T16:54:31.257Z,16.40
2019-04-23T17:00:02.847Z,16.40
2019-04-23T17:02:13.519Z,16.40
2019-04-23T17:07:05.162Z,16.30
2019-04-23T17:12:08.983Z,16.30
2019-04-23T17:14:44.215Z,16.20
2019-04-23T17:17:04.828Z,16.20
2019-04-23T17:19:47.806Z,16.10
2019-04-23T17:22:11.320Z,16.10
2019-04-23T17:24:40.754Z,16.00
2019-04-23T17:27:34.918Z,15.90
2019-04-23T17:32:15.195Z,15.80
2019-04-23T17:34:54.769Z,15.80
2019-04-23T17:37:29.935Z,15.80
2019-04-23T17:40:03.607Z,15.70
2019-04-23T17:42:27.400Z,15.70
2019-04-23T17:45:26.139Z,15.70
2019-04-23T17:47:28.493Z,15.60
2019-04-23T17:52:38.684Z,15.60
2019-04-23T17:55:01.835Z,15.70
2019-04-23T17:57:30.644Z,15.70
2019-04-23T18:00:19.492Z,15.60
2019-04-23T18:05:08.204Z,15.70
2019-04-23T18:07:44.867Z,15.60
2019-04-23T18:10:17.944Z,15.60
2019-04-23T18:15:12.074Z,15.50
2019-04-23T18:17:52.767Z,15.50
2019-04-23T18:20:23.024Z,15.50
2019-04-23T18:22:53.513Z,15.50
2019-04-23T18:27:55.113Z,15.50
2019-04-23T18:30:28.809Z,15.50
2019-04-23T18:33:43.782Z,15.50
2019-04-23T18:35:33.009Z,15.50
2019-04-23T18:38:14.773Z,15.50
2019-04-23T18:40:54.567Z,15.50
2019-04-23T18:43:20.915Z,15.50
2019-04-23T18:45:47.737Z,15.50
2019-04-23T18:51:03.528Z,15.50
2019-04-23T18:56:06.666Z,15.50
2019-04-23T18:58:48.592Z,15.60
2019-04-23T19:01:11.314Z,15.70
2019-04-23T19:04:01.999Z,15.90
2019-04-23T19:06:34.638Z,16.00
2019-04-23T19:09:39.821Z,16.10
2019-04-23T19:12:25.555Z,16.10
2019-04-23T19:14:40.834Z,16.10
2019-04-23T19:19:57.757Z,16.10
2019-04-23T19:22:19.481Z,16.10
2019-04-23T19:25:01.617Z,16.10
2019-04-23T19:29:52.015Z,16.00
2019-04-23T19:32:20.875Z,15.90
2019-04-23T19:34:54.473Z,15.90
2019-04-23T19:37:35.221Z,15.90
2019-04-23T19:39:55.011Z,15.80
2019-04-23T19:42:29.018Z,15.80
2019-04-23T19:44:54.083Z,15.80
2019-04-23T19:47:37.300Z,15.80
2019-04-23T19:49:57.056Z,15.80
2019-04-23T19:52:52.611Z,15.80
2019-04-23T20:00:33.446Z,15.70
2019-04-23T20:03:01.586Z,15.70
2019-04-23T20:05:13.747Z,15.70
2019-04-23T20:07:56.651Z,15.70
2019-04-23T20:10:21.341Z,15.70
2019-04-23T20:12:46.454Z,15.70
2019-04-23T20:15:26.702Z,15.70
2019-04-23T20:17:54.646Z,15.60
2019-04-23T20:20:35.419Z,15.60
2019-04-23T20:22:55.326Z,15.60
2019-04-23T20:28:16.397Z,15.60
2019-04-23T20:31:39.363Z,15.60
2019-04-23T20:34:16.304Z,15.70
2019-04-23T20:36:22.004Z,15.60
2019-04-23T20:38:53.247Z,15.60
2019-04-23T20:41:27.915Z,15.60
2019-04-23T20:43:54.607Z,15.60
2019-04-23T20:46:14.806Z,15.50
2019-04-23T20:49:00.867Z,15.50
2019-04-23T20:51:14.400Z,15.50
2019-04-23T20:53:55.329Z,15.50
2019-04-23T20:56:27.144Z,15.50
2019-04-23T20:58:55.617Z,15.50
2019-04-23T21:03:55.182Z,15.40
2019-04-23T21:06:28.376Z,15.40
2019-04-23T21:09:24.413Z,15.40
2019-04-23T21:11:24.227Z,15.40
2019-04-23T21:14:10.936Z,15.30
2019-04-23T21:16:30.512Z,15.30
2019-04-23T21:19:15.170Z,15.30
2019-04-23T21:21:25.934Z,15.30
2019-04-23T21:23:56.520Z,15.30
2019-04-23T21:26:25.092Z,15.20
2019-04-23T21:29:07.042Z,15.10
2019-04-23T21:31:22.847Z,15.10
2019-04-23T21:34:06.188Z,15.00
2019-04-23T21:36:29.127Z,14.90
2019-04-23T21:41:50.960Z,14.80
2019-04-23T21:46:51.114Z,14.80
2019-04-23T21:54:06.071Z,14.70
2019-04-23T21:56:44.483Z,14.70
2019-04-23T21:59:07.240Z,14.70
2019-04-23T22:04:25.625Z,14.60
2019-04-23T22:06:59.217Z,14.50
2019-04-23T22:09:27.204Z,14.40
2019-04-23T22:14:16.973Z,14.40
2019-04-23T22:17:04.977Z,14.30
2019-04-23T22:24:33.012Z,14.20
2019-04-23T22:26:45.293Z,14.20
2019-04-23T22:29:27.822Z,14.10
2019-04-23T22:34:30.979Z,14.10
2019-04-23T22:37:04.577Z,14.00
2019-04-23T22:39:27.322Z,14.00
2019-04-23T22:41:55.927Z,14.00
2019-04-23T22:44:29.664Z,14.00
2019-04-23T22:52:19.270Z,13.90
2019-04-23T22:54:31.764Z,13.90
2019-04-23T22:57:01.226Z,13.90
2019-04-23T22:59:35.725Z,13.80
2019-04-23T23:02:28.117Z,13.80
2019-04-23T23:05:04.161Z,13.90
2019-04-23T23:07:28.835Z,13.90
2019-04-23T23:12:21.012Z,13.80
2019-04-23T23:14:54.735Z,13.80
2019-04-23T23:17:26.560Z,13.80
2019-04-23T23:20:01.749Z,13.80
2019-04-23T23:22:22.439Z,13.70
2019-04-23T23:24:56.425Z,13.80
2019-04-23T23:27:23.959Z,13.70
2019-04-23T23:32:23.180Z,13.70
2019-04-23T23:35:11.267Z,13.70
2019-04-23T23:37:19.069Z,13.70
2019-04-23T23:39:58.053Z,13.60
2019-04-23T23:42:26.025Z,13.60
2019-04-23T23:45:02.874Z,13.60
2019-04-23T23:50:00.894Z,13.60
2019-04-23T23:52:32.836Z,13.60
2019-04-23T23:54:59.326Z,13.60
2019-04-23T23:57:23.327Z,13.60
